CheckWX is a tool to help pilots better visualize weather data.  It is not intended as a substitute for an official pre-flight weather briefing.

23:12:59 UTC

KGHG METAR
Marshfield Municipal - George Harlow Field Airport
Marshfield, Massachusetts, USA
Current

38 mins ago

KGHG 192235Z AUTO 14004KT 10SM FEW085 03/M05 A3035 RMK AO2
Observed
Mar-19 @ 22:35 UTC
Wind
  • 140° at 4 KTS
Visibility
10 SM
Flight Rules
VFR
Cloud Levels
  • Few at 8,500' AGL
Temperature
C / 37°F
Dewpoint
-5°C / 23°F
Humidity
56%
Altimeter
30.35" Hg
Pressure
1027.82 hPa
Previous

58 mins ago

KGHG 192215Z AUTO 14005KT 10SM SCT090 03/M04 A3035 RMK AO2
Observed
Mar-19 @ 22:15 UTC
Wind
  • 140° at 5 KTS
Visibility
10 SM
Flight Rules
VFR
Cloud Levels
  • Scattered at 9,000' AGL
Temperature
C / 37°F
Dewpoint
-4°C / 25°F
Humidity
60%
Altimeter
30.35" Hg
Pressure
1027.82 hPa
Previous

1 hour ago

KGHG 192155Z AUTO 15005KT 10SM SCT090 03/M05 A3035 RMK AO2
Observed
Mar-19 @ 21:55 UTC
Wind
  • 150° at 5 KTS
Visibility
10 SM
Flight Rules
VFR
Cloud Levels
  • Scattered at 9,000' AGL
Temperature
C / 37°F
Dewpoint
-5°C / 23°F
Humidity
56%
Altimeter
30.35" Hg
Pressure
1027.82 hPa